Time;durP1;ratioP1;P1;durP2;ratioP2;P2;SDS_P1;SDS_P2;PMS_P1;PMS_P2;Temp;Humidity;BMP_temperature;BMP_pressure;BME280_temperature;BME280_humidity;BME280_pressure;Samples;Min_cycle;Max_cycle;Signal;HPM_P1;HPM_P2
2022/04/21 00:00:51;;;;;;;;;9.33;9.33;;;;;16.49;35.52;100233.59;4892504;29;45892;-86
2022/04/21 00:03:17;;;;;;;;;10.67;9.00;;;;;16.55;35.29;100252.28;4892113;29;45445;-86
2022/04/21 00:05:43;;;;;;;;;10.00;10.00;;;;;16.55;35.72;100254.09;4878172;29;45455;-87
2022/04/21 00:08:09;;;;;;;;;9.33;9.33;;;;;16.53;35.29;100251.41;4896017;29;45386;-87
2022/04/21 00:10:35;;;;;;;;;16.00;14.00;;;;;16.49;35.46;100255.06;4878374;29;45766;-86
2022/04/21 00:13:01;;;;;;;;;12.33;10.00;;;;;16.44;35.38;100251.59;4874672;29;45402;-86
2022/04/21 00:15:27;;;;;;;;;9.33;9.33;;;;;16.38;35.69;100241.84;4874021;29;45929;-86
2022/04/21 00:17:53;;;;;;;;;14.67;11.67;;;;;16.37;35.50;100242.75;4887451;29;47156;-86
2022/04/21 00:20:19;;;;;;;;;12.67;9.67;;;;;16.37;36.30;100250.81;4874008;29;45381;-86
2022/04/21 00:25:29;;;;;;;;;15.33;12.67;;;;;16.41;36.85;100257.00;4897098;29;45345;-86
2022/04/21 00:27:55;;;;;;;;;13.67;11.00;;;;;16.30;37.11;100242.88;4878865;29;47596;-86
2022/04/21 00:30:21;;;;;;;;;13.67;11.33;;;;;16.23;37.60;100243.91;4894347;29;45549;-86
2022/04/21 00:32:46;;;;;;;;;12.33;11.67;;;;;16.15;37.77;100241.38;4876153;29;45834;-87
2022/04/21 00:35:13;;;;;;;;;14.33;12.67;;;;;16.09;37.97;100234.28;4893519;29;45383;-86
2022/04/21 00:37:56;;;;;;;;;12.00;12.00;;;;;16.15;37.95;100234.19;4889166;29;45494;-87
2022/04/21 00:40:26;;;;;;;;;10.67;8.67;;;;;16.00;38.52;100205.84;4870842;29;44790;-85
2022/04/21 00:42:54;;;;;;;;;11.00;11.00;;;;;16.02;38.70;100232.66;4870376;29;44801;-86
2022/04/21 00:45:19;;;;;;;;;12.33;11.33;;;;;15.95;38.80;100226.47;4871062;29;45336;-86
2022/04/21 00:47:46;;;;;;;;;13.67;12.67;;;;;15.94;39.47;100230.06;4871268;29;46840;-86
2022/04/21 00:50:19;;;;;;;;;11.67;11.33;;;;;15.94;39.55;100224.72;4872496;29;45680;-86
2022/04/21 00:52:46;;;;;;;;;12.33;11.00;;;;;15.72;39.94;100210.75;4874166;29;45400;-85
2022/04/21 00:55:13;;;;;;;;;11.00;11.00;;;;;15.76;39.75;100231.25;4875504;29;45557;-86
2022/04/21 00:57:41;;;;;;;;;8.67;8.67;;;;;15.78;39.71;100234.78;4892205;29;45493;-86
2022/04/21 01:00:07;;;;;;;;;13.33;13.00;;;;;15.67;39.72;100223.31;4875842;29;45424;-86
2022/04/21 01:05:30;;;;;;;;;12.00;11.33;;;;;15.67;39.86;100223.31;4893381;29;45435;-85
2022/04/21 01:08:07;;;;;;;;;11.33;10.33;;;;;15.66;39.99;100218.00;4874911;29;47108;-87
2022/04/21 01:10:37;;;;;;;;;13.33;12.00;;;;;15.64;40.47;100223.38;4874189;29;44826;-87
2022/04/21 01:13:08;;;;;;;;;9.33;8.00;;;;;15.59;40.34;100209.13;4889231;29;45469;-87
2022/04/21 01:15:39;;;;;;;;;13.33;11.67;;;;;15.60;40.56;100218.97;4874823;29;44881;-87
2022/04/21 01:18:06;;;;;;;;;15.33;12.00;;;;;15.46;40.87;100208.44;4871301;29;48253;-87
2022/04/21 01:20:31;;;;;;;;;10.33;9.33;;;;;15.39;41.12;100218.38;4870754;29;44916;-87
2022/04/21 01:22:57;;;;;;;;;11.33;11.33;;;;;15.19;41.33;100185.63;4873100;29;45768;-86
2022/04/21 01:25:23;;;;;;;;;14.67;13.00;;;;;15.33;41.50;100215.78;4855893;29;45494;-87
2022/04/21 01:27:52;;;;;;;;;14.00;13.00;;;;;15.30;41.53;100205.09;4852494;29;46720;-87
2022/04/21 01:30:18;;;;;;;;;12.00;12.00;;;;;15.15;41.79;100194.59;4869053;29;45412;-87
2022/04/21 01:32:45;;;;;;;;;15.00;11.67;;;;;15.23;42.13;100203.41;4870637;29;45441;-87
2022/04/21 01:35:11;;;;;;;;;13.33;13.33;;;;;15.18;42.10;100205.25;4874357;29;44816;-87
2022/04/21 01:43:07;;;;;;;;;13.33;11.67;;;;;15.02;42.88;100198.34;4874834;29;45533;-87
2022/04/21 01:45:33;;;;;;;;;12.33;10.67;;;;;15.00;42.87;100201.91;4874305;29;45399;-87
2022/04/21 01:47:59;;;;;;;;;13.00;13.00;;;;;14.93;42.87;100213.63;4857899;29;46157;-87
2022/04/21 01:50:26;;;;;;;;;11.67;11.67;;;;;14.88;43.38;100196.72;4876023;29;45404;-87
2022/04/21 01:52:52;;;;;;;;;11.00;11.00;;;;;14.79;43.00;100183.44;4859478;29;45821;-85
2022/04/21 01:55:19;;;;;;;;;12.33;11.33;;;;;14.83;43.01;100195.00;4844659;29;45436;-87
2022/04/21 01:57:44;;;;;;;;;12.67;12.67;;;;;14.78;43.03;100200.41;4860489;29;46967;-87
2022/04/21 02:00:10;;;;;;;;;11.67;11.67;;;;;14.70;43.31;100187.09;4861448;29;45290;-87
2022/04/21 02:02:36;;;;;;;;;11.00;11.00;;;;;14.71;43.34;100196.03;4860745;29;44789;-87
2022/04/21 02:05:02;;;;;;;;;14.33;12.33;;;;;14.66;43.32;100184.50;4858819;29;45502;-87
2022/04/21 02:07:28;;;;;;;;;12.00;12.00;;;;;14.67;43.40;100191.63;4857857;29;47025;-87
2022/04/21 02:09:55;;;;;;;;;14.33;12.33;;;;;14.66;43.73;100181.81;4857278;29;45469;-86
2022/04/21 02:12:22;;;;;;;;;12.00;12.00;;;;;14.69;43.55;100184.47;4870511;29;45441;-87
2022/04/21 02:14:48;;;;;;;;;10.00;6.00;;;;;14.65;43.60;100186.28;4854380;29;44804;-87
2022/04/21 02:17:14;;;;;;;;;11.00;11.00;;;;;14.48;43.94;100151.66;4855350;29;48298;-87
2022/04/21 02:19:39;;;;;;;;;11.67;11.00;;;;;14.63;43.85;100179.19;4888089;29;45327;-87
2022/04/21 02:22:04;;;;;;;;;14.33;13.67;;;;;14.51;44.08;100154.28;4873725;29;45387;-87
2022/04/21 02:24:30;;;;;;;;;13.67;12.33;;;;;14.60;44.11;100175.66;4875680;29;45249;-86
2022/04/21 02:26:55;;;;;;;;;14.67;14.33;;;;;14.47;44.15;100160.59;4892166;29;45592;-87
2022/04/21 02:29:21;;;;;;;;;10.00;10.00;;;;;14.58;44.19;100173.88;4888905;29;45447;-87
2022/04/21 02:31:46;;;;;;;;;14.00;12.00;;;;;14.54;44.60;100173.00;4890786;29;45439;-87
2022/04/21 02:34:12;;;;;;;;;11.00;11.00;;;;;14.49;44.54;100172.16;4873328;29;45454;-86
2022/04/21 02:36:38;;;;;;;;;15.67;13.33;;;;;14.47;44.71;100171.28;4873843;29;47237;-86
2022/04/21 02:39:04;;;;;;;;;13.00;12.33;;;;;14.49;44.57;100168.59;4878445;29;45846;-86
2022/04/21 02:41:29;;;;;;;;;13.00;13.00;;;;;14.40;44.80;100156.19;4877384;29;44788;-86
2022/04/21 02:43:55;;;;;;;;;12.67;12.67;;;;;14.37;44.72;100150.88;4895020;29;45503;-88
2022/04/21 02:46:26;;;;;;;;;12.33;11.67;;;;;14.47;44.90;100155.22;4877198;29;46738;-86
2022/04/21 02:48:52;;;;;;;;;13.67;13.00;;;;;14.10;45.05;100112.84;4878209;29;45404;-86
2022/04/21 02:51:17;;;;;;;;;13.00;13.00;;;;;14.10;45.16;100120.88;4877556;29;46051;-86
2022/04/21 02:57:20;;;;;;;;;15.33;14.33;;;;;14.30;45.71;100159.88;4892949;29;45432;-89
2022/04/21 02:59:58;;;;;;;;;14.33;14.33;;;;;14.29;45.85;100156.31;4876914;29;45679;-87
2022/04/21 03:02:24;;;;;;;;;19.00;18.00;;;;;14.20;46.34;100154.63;4875499;29;45340;-86
2022/04/21 03:04:51;;;;;;;;;14.67;12.33;;;;;14.06;46.17;100132.50;4874015;29;45493;-87
2022/04/21 03:07:23;;;;;;;;;13.00;13.00;;;;;13.97;45.96;100120.09;4874743;29;47348;-85
2022/04/21 03:09:55;;;;;;;;;18.00;16.00;;;;;14.05;46.03;100135.19;4890402;29;44891;-88
2022/04/21 03:12:26;;;;;;;;;16.67;14.00;;;;;14.15;46.07;100152.91;4874301;29;45473;-87
2022/04/21 03:14:52;;;;;;;;;19.33;16.67;;;;;13.89;46.48;100126.41;4890155;29;45736;-86
2022/04/21 03:17:18;;;;;;;;;17.00;14.33;;;;;13.94;46.83;100154.00;4887633;29;47085;-87
2022/04/21 03:19:44;;;;;;;;;14.67;14.00;;;;;13.91;46.70;100140.66;4888085;29;45608;-87
2022/04/21 03:24:58;;;;;;;;;16.67;16.67;;;;;13.96;46.76;100128.16;4890074;29;44833;-87
2022/04/21 03:27:26;;;;;;;;;15.33;13.00;;;;;13.93;46.56;100126.38;4871593;29;47100;-87
2022/04/21 03:29:52;;;;;;;;;19.33;19.33;;;;;13.90;47.01;100134.44;4871786;29;44832;-86
2022/04/21 03:32:17;;;;;;;;;16.00;15.67;;;;;13.88;47.03;100122.88;4872260;29;45478;-86
2022/04/21 03:34:44;;;;;;;;;17.00;17.00;;;;;13.88;47.23;100124.66;4872639;29;45434;-87
2022/04/21 03:37:13;;;;;;;;;16.33;15.67;;;;;13.88;47.36;100130.00;4855893;29;48050;-87
2022/04/21 03:39:40;;;;;;;;;14.00;14.00;;;;;13.72;47.42;100122.13;4854946;29;45710;-87
2022/04/21 03:42:08;;;;;;;;;18.33;16.67;;;;;13.72;47.62;100118.56;4870814;29;45411;-87
2022/04/21 03:44:39;;;;;;;;;16.33;16.33;;;;;13.73;47.49;100137.22;4856096;29;45483;-87
2022/04/21 03:47:06;;;;;;;;;16.67;16.67;;;;;13.70;48.07;100134.59;4857851;29;48309;-87
2022/04/21 03:49:31;;;;;;;;;20.00;20.00;;;;;13.56;47.89;100123.16;4858074;29;45561;-87
2022/04/21 03:51:57;;;;;;;;;14.33;13.00;;;;;13.65;48.37;100133.75;4872200;29;45391;-87
2022/04/21 03:54:26;;;;;;;;;15.67;14.00;;;;;13.42;47.63;100084.97;4875823;29;45556;-86
2022/04/21 03:56:52;;;;;;;;;16.33;16.00;;;;;13.54;48.20;100133.84;4873821;29;46679;-87
2022/04/21 03:59:19;;;;;;;;;20.33;16.67;;;;;13.55;48.30;100135.63;4872511;29;45472;-88
2022/04/21 04:01:45;;;;;;;;;15.00;15.00;;;;;13.43;48.81;100122.34;4874028;29;44792;-87
2022/04/21 04:04:12;;;;;;;;;16.00;14.67;;;;;13.55;48.45;100137.38;4872631;29;44792;-87
2022/04/21 04:12:09;;;;;;;;;11.33;11.33;;;;;13.46;48.85;100126.78;4874570;29;45509;-88
2022/04/21 04:14:35;;;;;;;;;17.33;15.33;;;;;13.43;48.68;100126.81;4874061;29;45446;-86
2022/04/21 04:17:00;;;;;;;;;11.00;11.00;;;;;13.37;49.27;100128.63;4873955;29;46297;-87
2022/04/21 04:19:27;;;;;;;;;16.33;14.67;;;;;13.27;49.04;100105.53;4870945;29;44828;-87
2022/04/21 04:21:52;;;;;;;;;18.33;18.33;;;;;13.30;49.41;100113.53;4892953;29;44769;-86
2022/04/21 04:24:18;;;;;;;;;14.00;14.00;;;;;13.18;49.30;100098.44;4871961;29;45581;-87
2022/04/21 04:26:43;;;;;;;;;14.00;13.00;;;;;13.30;49.28;100121.56;4890881;29;46265;-87
2022/04/21 04:29:09;;;;;;;;;14.00;13.00;;;;;13.30;49.36;100113.53;4889626;29;45257;-87
2022/04/21 04:31:45;;;;;;;;;16.00;16.00;;;;;13.31;49.09;100112.66;4890465;29;44738;-86
2022/04/21 04:34:11;;;;;;;;;16.00;14.67;;;;;13.30;49.29;100136.69;4891970;29;45330;-86
2022/04/21 04:36:37;;;;;;;;;17.00;13.00;;;;;12.99;49.69;100088.81;4888059;29;46605;-87
2022/04/21 04:39:02;;;;;;;;;15.33;15.33;;;;;13.16;49.56;100124.28;4890716;29;45462;-87
2022/04/21 04:44:11;;;;;;;;;15.33;15.33;;;;;13.25;50.02;100143.81;4890105;29;45494;-86
2022/04/21 04:46:40;;;;;;;;;19.67;18.67;;;;;13.25;49.65;100144.72;4872860;29;45212;-87
2022/04/21 04:49:09;;;;;;;;;23.00;17.33;;;;;13.37;49.57;100160.69;4888490;29;45505;-86
2022/04/21 04:51:37;;;;;;;;;24.67;19.67;;;;;13.25;50.31;100146.47;4888976;29;45359;-87
2022/04/21 04:54:05;;;;;;;;;20.00;18.00;;;;;13.26;49.73;100150.94;4891320;29;44780;-86
2022/04/21 04:56:31;;;;;;;;;18.67;16.67;;;;;13.26;50.05;100167.84;4891103;29;46969;-87
2022/04/21 04:58:58;;;;;;;;;16.00;16.00;;;;;13.15;49.95;100143.00;4892730;29;44841;-88
2022/04/21 05:01:35;;;;;;;;;19.00;19.00;;;;;13.37;49.62;100171.38;4891575;29;45339;-87
2022/04/21 05:04:05;;;;;;;;;14.67;14.67;;;;;13.29;50.03;100156.22;4892635;29;44764;-86
2022/04/21 05:06:35;;;;;;;;;16.67;14.33;;;;;13.38;48.34;100167.78;4892169;29;47413;-86
2022/04/21 05:09:01;;;;;;;;;16.00;13.33;;;;;13.27;47.02;100148.25;4876127;29;45360;-87
2022/04/21 05:11:27;;;;;;;;;10.67;10.67;;;;;13.28;47.14;100158.03;4895097;29;44914;-88
2022/04/21 05:13:52;;;;;;;;;14.33;14.00;;;;;13.38;46.69;100170.47;4894324;29;45493;-88
2022/04/21 05:16:18;;;;;;;;;14.33;12.33;;;;;13.43;45.33;100158.84;4893945;29;45558;-87
2022/04/21 05:18:43;;;;;;;;;15.33;14.67;;;;;13.40;45.70;100144.63;4879741;29;44897;-87
2022/04/21 05:21:22;;;;;;;;;11.00;11.00;;;;;13.50;45.72;100141.91;4895356;29;45793;-87
2022/04/21 05:23:48;;;;;;;;;15.33;13.67;;;;;13.58;46.05;100164.09;4893595;29;45351;-87
2022/04/21 05:26:15;;;;;;;;;12.00;10.33;;;;;13.43;45.30;100133.03;4891695;29;45416;-87
2022/04/21 05:28:42;;;;;;;;;18.00;13.00;;;;;13.71;44.58;100165.75;4891129;29;45328;-87
2022/04/21 05:31:53;;;;;;;;;10.67;9.67;;;;;13.86;43.70;100154.06;4890723;29;45718;-89
2022/04/21 05:34:19;;;;;;;;;14.00;12.67;;;;;13.47;42.92;100113.44;4782549;29;45299;-87
2022/04/21 05:36:45;;;;;;;;;14.00;11.00;;;;;13.49;42.61;100105.38;4782032;29;46945;-86
2022/04/21 05:45:55;;;;;;;;;5.67;5.67;;;;;14.19;41.30;100147.50;4801943;29;44860;-87
2022/04/21 05:48:21;;;;;;;;;11.33;8.67;;;;;14.21;40.94;100145.69;4787188;29;46949;-87
2022/04/21 05:50:49;;;;;;;;;10.33;10.33;;;;;14.38;40.63;100145.53;4802282;29;45892;-87
2022/04/21 05:53:22;;;;;;;;;11.00;11.00;;;;;14.60;39.32;100145.28;4802011;29;45477;-87
2022/04/21 05:55:49;;;;;;;;;11.00;11.00;;;;;14.53;40.21;100143.59;4797027;29;46004;-86
2022/04/21 05:58:16;;;;;;;;;9.00;7.67;;;;;14.69;39.00;100141.66;4795643;29;46131;-86
2022/04/21 06:00:42;;;;;;;;;9.00;9.00;;;;;14.57;39.51;100131.97;4795359;29;45601;-87
2022/04/21 06:03:08;;;;;;;;;13.50;12.00;;;;;14.72;39.27;100138.91;4780218;29;45714;-87
2022/04/21 06:05:33;;;;;;;;;12.00;10.67;;;;;14.82;39.01;100147.72;4796982;29;45198;-86
2022/04/21 06:07:59;;;;;;;;;12.00;12.00;;;;;14.74;38.32;100126.41;4781819;29;46839;-87
2022/04/21 06:10:24;;;;;;;;;12.00;10.33;;;;;14.82;38.75;100143.25;4854696;29;45501;-87
2022/04/21 06:12:50;;;;;;;;;10.00;10.00;;;;;14.83;39.12;100134.31;4875801;29;45184;-86
2022/04/21 06:15:16;;;;;;;;;13.67;12.67;;;;;14.64;39.20;100096.19;4892588;29;45407;-86
2022/04/21 06:17:45;;;;;;;;;9.00;9.00;;;;;14.86;38.99;100136.94;4876079;29;46229;-87
2022/04/21 06:20:11;;;;;;;;;12.33;11.33;;;;;14.87;38.86;100129.81;4874951;29;45245;-87
2022/04/21 06:22:36;;;;;;;;;12.33;12.33;;;;;14.89;38.40;100138.72;4874802;29;45565;-87
2022/04/21 06:25:02;;;;;;;;;13.00;13.00;;;;;14.67;38.80;100108.66;4892978;29;45439;-87
2022/04/21 06:27:28;;;;;;;;;13.00;12.00;;;;;14.65;38.76;100092.63;4877029;29;48333;-87
2022/04/21 06:29:53;;;;;;;;;13.67;13.67;;;;;14.95;38.86;100139.50;4895323;29;44790;-87
2022/04/21 06:32:19;;;;;;;;;10.00;7.67;;;;;15.00;38.54;100132.28;4878520;29;45396;-88
2022/04/21 06:34:44;;;;;;;;;13.67;12.33;;;;;14.99;38.59;100126.97;4879141;29;45487;-87
2022/04/21 06:37:13;;;;;;;;;12.00;11.33;;;;;15.12;38.78;100109.78;4894436;29;46656;-87
2022/04/21 06:39:38;;;;;;;;;12.33;12.00;;;;;15.14;38.47;100117.81;4881061;29;45308;-87
2022/04/21 06:42:04;;;;;;;;;14.67;11.67;;;;;15.31;38.77;100122.91;4880350;29;45798;-87
2022/04/21 06:50:03;;;;;;;;;18.00;18.00;;;;;15.65;38.21;100123.25;4899741;29;45363;-88
2022/04/21 06:52:31;;;;;;;;;20.00;16.67;;;;;15.57;38.06;100111.78;4885018;29;45550;-88
2022/04/21 06:54:56;;;;;;;;;28.00;28.00;;;;;15.54;38.81;100102.00;4879943;29;45328;-87
2022/04/21 06:57:23;;;;;;;;;19.00;16.67;;;;;15.70;38.01;100108.00;4876876;29;45327;-87
2022/04/21 06:59:49;;;;;;;;;14.67;13.00;;;;;15.93;37.99;100120.16;4876677;29;45703;-86
2022/04/21 07:02:59;;;;;;;;;18.00;14.33;;;;;16.09;36.64;100118.06;4877096;29;45359;-87
2022/04/21 07:05:26;;;;;;;;;13.67;12.67;;;;;15.90;36.96;100120.22;4892006;29;45617;-87
2022/04/21 07:07:55;;;;;;;;;14.67;13.00;;;;;15.75;37.11;100113.31;4877731;29;45709;-87
2022/04/21 07:10:23;;;;;;;;;14.00;12.33;;;;;15.87;37.37;100125.63;4896503;29;45321;-88
2022/04/21 07:12:48;;;;;;;;;14.67;14.67;;;;;15.63;37.54;100090.22;4899029;29;44959;-88
2022/04/21 07:15:15;;;;;;;;;12.33;11.67;;;;;15.64;37.38;100092.03;4900810;29;44962;-87
2022/04/21 07:17:44;;;;;;;;;15.00;14.00;;;;;15.88;37.54;100106.81;4903429;28;46919;-86
2022/04/21 07:20:13;;;;;;;;;14.00;11.67;;;;;15.96;37.88;100094.16;4916120;28;45361;-86
2022/04/21 07:22:45;;;;;;;;;14.33;14.33;;;;;16.19;37.01;100096.41;4883765;29;45927;-87
2022/04/21 07:25:10;;;;;;;;;14.33;12.33;;;;;16.31;36.84;100113.19;4861479;29;45154;-88
2022/04/21 07:30:58;;;;;;;;;13.00;12.00;;;;;16.40;35.60;100110.31;4874537;29;45415;-86
2022/04/21 07:33:24;;;;;;;;;11.00;10.00;;;;;16.27;36.42;100100.75;4874416;29;45756;-86
2022/04/21 07:35:50;;;;;;;;;17.33;14.00;;;;;16.26;36.45;100088.22;4891850;29;45741;-86
2022/04/21 07:38:15;;;;;;;;;17.67;15.00;;;;;16.30;36.96;100087.25;4894213;29;45451;-86
2022/04/21 07:40:43;;;;;;;;;13.00;13.00;;;;;16.50;36.63;100087.75;4891368;29;45396;-88
2022/04/21 07:43:09;;;;;;;;;22.33;17.67;;;;;16.44;36.48;100081.59;4893404;29;45561;-87
2022/04/21 07:45:41;;;;;;;;;17.67;14.33;;;;;16.62;36.56;100099.13;4893848;29;45411;-86
2022/04/21 07:48:09;;;;;;;;;13.00;11.67;;;;;16.58;36.18;100076.84;4880921;29;45249;-88
2022/04/21 07:50:35;;;;;;;;;12.67;12.67;;;;;16.62;36.04;100091.09;4858623;29;45451;-88
2022/04/21 07:53:18;;;;;;;;;12.00;10.33;;;;;16.51;35.87;100076.09;4856566;29;44846;-86
2022/04/21 07:56:17;;;;;;;;;14.33;14.00;;;;;16.67;35.96;100095.44;4875694;29;45503;-86
2022/04/21 07:59:37;;;;;;;;;12.33;12.33;;;;;16.87;36.11;100084.31;4860463;29;45602;-86
2022/04/21 08:09:20;;;;;;;;;17.33;13.67;;;;;16.81;36.13;100087.13;4834253;29;45465;-85
2022/04/21 08:12:31;;;;;;;;;;;;;;;;;;;;;
2022/04/21 08:15:58;;;;;;;;;11.33;11.33;;;;;16.74;36.40;100086.34;4825279;29;72613;-86
2022/04/21 08:18:40;;;;;;;;;16.67;16.33;;;;;16.56;35.74;100042.00;4814942;29;45462;-88
2022/04/21 08:32:46;;;;;;;;;13.00;13.00;;;;;17.13;35.03;100042.53;4783080;29;46081;-86
2022/04/21 08:35:13;;;;;;;;;14.33;13.00;;;;;17.40;35.00;100090.22;4783115;29;48241;-86
2022/04/21 08:37:41;;;;;;;;;11.00;10.00;;;;;17.43;34.86;100089.28;4787282;29;45454;-85
2022/04/21 08:40:18;;;;;;;;;15.00;14.00;;;;;17.21;35.58;100045.91;4806179;29;44907;-85
2022/04/21 08:42:45;;;;;;;;;26.00;24.67;;;;;17.39;35.29;100048.16;4803746;29;45454;-84
2022/04/21 08:45:12;;;;;;;;;19.33;17.67;;;;;17.69;35.70;100076.97;4817297;29;45480;-84
2022/04/21 08:50:28;;;;;;;;;15.67;14.00;;;;;17.69;34.71;100085.03;4817498;29;45547;-86
2022/04/21 08:53:06;;;;;;;;;15.00;14.00;;;;;17.76;35.39;100087.53;4802290;29;45680;-86
2022/04/21 08:55:56;;;;;;;;;16.00;16.00;;;;;17.89;35.19;100089.91;4817729;29;45934;-87
2022/04/21 08:58:22;;;;;;;;;15.67;13.00;;;;;17.60;35.33;100053.88;4801270;29;45103;-85
2022/04/21 09:00:48;;;;;;;;;23.67;23.67;;;;;17.72;35.79;100064.31;4819325;29;44900;-84
2022/04/21 09:03:17;;;;;;;;;20.33;20.33;;;;;17.86;35.41;100069.38;4836551;29;45795;-84
2022/04/21 09:05:50;;;;;;;;;17.00;16.00;;;;;18.01;35.37;100086.91;4892070;29;45509;-86
2022/04/21 09:08:27;;;;;;;;;18.33;14.33;;;;;17.79;35.56;100043.53;4894325;29;44840;-86
2022/04/21 09:11:11;;;;;;;;;13.67;13.33;;;;;18.11;34.43;100087.53;4893108;29;45477;-85
2022/04/21 09:13:46;;;;;;;;;13.33;12.67;;;;;17.93;34.53;100051.25;4906710;29;45451;-85
2022/04/21 09:16:12;;;;;;;;;15.67;14.00;;;;;17.81;34.51;100052.44;4893986;29;47286;-85
2022/04/21 09:18:48;;;;;;;;;17.00;15.00;;;;;18.06;34.56;100084.97;4893699;29;45478;-85
2022/04/21 09:21:15;;;;;;;;;16.33;16.33;;;;;17.79;35.18;100035.44;4888840;29;45430;-85
2022/04/21 09:24:05;;;;;;;;;17.00;14.00;;;;;18.23;34.78;100075.56;4883632;29;44831;-85
2022/04/21 09:26:44;;;;;;;;;17.00;14.67;;;;;18.11;34.13;100074.97;4875180;29;46316;-84
2022/04/21 09:29:45;;;;;;;;;16.67;16.00;;;;;18.25;33.70;100084.47;4899618;29;45353;-84
2022/04/21 09:32:35;;;;;;;;;22.00;21.00;;;;;18.17;33.70;100079.28;4803771;29;45510;-86
2022/04/21 09:35:24;;;;;;;;;16.67;14.00;;;;;18.12;34.04;100082.13;4802303;29;45403;-86
2022/04/21 09:37:55;;;;;;;;;14.67;13.00;;;;;17.89;33.32;100025.38;4815087;29;45547;-86
2022/04/21 09:40:32;;;;;;;;;13.67;13.67;;;;;18.02;33.16;100040.25;4815200;29;45946;-85
2022/04/21 09:43:06;;;;;;;;;16.00;15.00;;;;;18.21;33.42;100056.75;4822027;29;45962;-85
2022/04/21 09:46:15;;;;;;;;;17.67;16.67;;;;;17.96;32.38;100011.69;4819209;29;45142;-86
2022/04/21 09:48:52;;;;;;;;;14.33;13.67;;;;;17.84;32.92;100005.78;4805657;29;45584;-86
2022/04/21 09:51:32;;;;;;;;;17.67;16.00;;;;;17.99;33.37;100018.78;4819511;29;45465;-84
2022/04/21 10:05:18;;;;;;;;;17.67;17.00;;;;;18.75;33.40;100041.72;4744576;30;45480;-85
2022/04/21 10:11:44;;;;;;;;;;;;;;;;;;;;;
2022/04/21 10:18:13;;;;;;;;;;;;;;;;;;;;;
2022/04/21 10:20:51;;;;;;;;;14.33;14.33;;;;;18.74;32.71;100005.81;4644552;30;69254;-88
2022/04/21 10:23:19;;;;;;;;;17.67;17.00;;;;;18.70;32.24;99997.88;4651493;30;44932;-86
2022/04/21 10:25:59;;;;;;;;;18.33;17.33;;;;;18.87;32.55;99990.19;4720206;30;47191;-86
2022/04/21 10:28:42;;;;;;;;;15.67;15.33;;;;;19.14;33.23;100006.38;4756526;29;45342;-85
2022/04/21 10:31:45;;;;;;;;;13.33;13.33;;;;;19.22;32.35;100009.69;4734667;30;44836;-84
2022/04/21 10:38:26;;;;;;;;;17.00;16.33;;;;;19.33;31.82;99994.06;4714673;30;45117;-85
2022/04/21 10:41:10;;;;;;;;;20.00;17.67;;;;;19.28;31.13;99960.94;4707441;30;45531;-84
2022/04/21 10:43:51;;;;;;;;;17.00;15.67;;;;;19.56;30.94;99992.38;4684559;30;45517;-87
2022/04/21 10:46:32;;;;;;;;;18.00;15.67;;;;;19.36;31.02;99963.41;4688307;30;45252;-85
2022/04/21 10:49:52;;;;;;;;;14.00;14.00;;;;;19.33;29.55;99956.31;4714564;30;47287;-84
2022/04/21 11:38:55;;;;;;;;;14.67;13.33;;;;;20.04;28.34;99964.59;4802467;29;45554;-87
2022/04/21 11:41:26;;;;;;;;;12.33;12.33;;;;;19.96;28.24;99942.41;4831862;29;45576;-87
2022/04/21 11:44:01;;;;;;;;;14.00;14.00;;;;;19.77;28.46;99918.81;4820272;29;45564;-86
2022/04/21 11:47:15;;;;;;;;;;;;;;;;;;;;;
2022/04/21 11:50:23;;;;;;;;;16.00;16.00;;;;;20.26;28.61;99959.25;4763349;29;75226;-87
2022/04/21 12:06:32;;;;;;;;;10.00;10.00;;;;;20.47;29.09;99940.44;4747188;30;44860;-87
2022/04/21 12:09:46;;;;;;;;;14.00;14.00;;;;;20.52;28.42;99933.94;4852214;29;45508;-85
2022/04/21 12:12:22;;;;;;;;;13.00;8.67;;;;;20.29;29.34;99897.00;4857547;29;45328;-85
2022/04/21 12:14:48;;;;;;;;;17.00;12.33;;;;;20.54;28.74;99923.94;4844030;29;46853;-84
2022/04/21 12:17:16;;;;;;;;;16.67;15.33;;;;;20.65;29.00;99930.75;4861693;29;45280;-83
2022/04/21 12:19:46;;;;;;;;;13.67;13.00;;;;;20.48;29.23;99907.06;4860312;29;45545;-85
2022/04/21 12:22:39;;;;;;;;;15.67;13.33;;;;;20.43;29.39;99885.66;4860571;29;44882;-85
2022/04/21 12:25:13;;;;;;;;;15.00;13.00;;;;;20.45;29.39;99886.47;4875097;29;45243;-85
2022/04/21 12:27:44;;;;;;;;;17.00;17.00;;;;;20.43;29.07;99882.97;4876022;29;44868;-85
2022/04/21 12:30:21;;;;;;;;;17.00;15.00;;;;;20.81;29.35;99923.78;4859139;29;45230;-86
2022/04/21 12:32:49;;;;;;;;;13.33;13.00;;;;;20.92;28.78;99935.00;4877432;29;44770;-86
2022/04/21 12:35:50;;;;;;;;;11.67;10.67;;;;;20.96;28.33;99925.84;4856879;29;46916;-85
2022/04/21 12:41:15;;;;;;;;;12.00;10.67;;;;;20.93;28.74;99904.34;4855199;29;45032;-84
2022/04/21 12:43:44;;;;;;;;;11.00;11.00;;;;;20.96;28.61;99920.44;4870488;29;44953;-84
2022/04/21 12:46:10;;;;;;;;;13.33;11.67;;;;;20.88;29.04;99890.13;4867613;29;45407;-84
2022/04/21 12:48:46;;;;;;;;;10.00;10.00;;;;;21.19;28.58;99896.97;4858764;29;44803;-84
2022/04/21 12:51:22;;;;;;;;;13.33;13.33;;;;;21.25;28.52;99902.09;4858786;29;45528;-84
2022/04/21 12:54:07;;;;;;;;;13.33;12.33;;;;;21.30;28.60;99913.59;4857465;29;45348;-84
2022/04/21 12:56:55;;;;;;;;;14.33;11.00;;;;;21.15;28.71;99898.03;4829163;29;45650;-83
2022/04/21 12:59:22;;;;;;;;;14.33;14.33;;;;;20.98;28.26;99885.22;4860605;29;45744;-83
2022/04/21 13:01:50;;;;;;;;;11.33;11.33;;;;;20.92;28.75;99848.53;4859189;29;45411;-84
2022/04/21 13:04:22;;;;;;;;;13.00;13.00;;;;;21.08;28.82;99880.31;4842674;29;45463;-84
2022/04/21 13:06:50;;;;;;;;;15.00;13.00;;;;;20.93;29.17;99858.41;4857738;29;46270;-83
2022/04/21 13:09:59;;;;;;;;;13.33;11.00;;;;;21.31;28.74;99898.22;4858477;29;44806;-84
2022/04/21 13:12:24;;;;;;;;;19.00;17.00;;;;;21.16;29.44;99891.69;4857844;29;44857;-84
2022/04/21 13:14:51;;;;;;;;;13.00;13.00;;;;;21.27;28.54;99875.88;4856851;29;45483;-84
2022/04/21 13:17:17;;;;;;;;;13.33;13.33;;;;;21.27;28.73;99885.78;4858508;29;46462;-84
2022/04/21 13:19:43;;;;;;;;;12.67;12.67;;;;;21.32;29.13;99871.13;4826144;29;45335;-84
2022/04/21 13:23:04;;;;;;;;;13.67;12.67;;;;;21.42;28.75;99870.72;4869979;29;44764;-84
2022/04/21 13:25:33;;;;;;;;;17.33;13.33;;;;;21.11;29.16;99847.75;4861458;29;45446;-84
2022/04/21 13:28:07;;;;;;;;;13.33;13.33;;;;;21.25;29.05;99856.13;4859948;29;47156;-84
2022/04/21 13:30:33;;;;;;;;;11.00;11.00;;;;;21.27;28.94;99848.81;4852649;29;44945;-84
2022/04/21 13:42:41;;;;;;;;;12.00;11.67;;;;;21.15;29.76;99812.38;4807706;29;44983;-82
2022/04/21 13:45:07;;;;;;;;;8.00;7.67;;;;;21.17;29.08;99796.97;4805163;29;45804;-83
2022/04/21 13:47:35;;;;;;;;;14.67;12.67;;;;;21.35;29.45;99848.50;4820230;29;44766;-86
2022/04/21 13:50:01;;;;;;;;;11.33;10.00;;;;;21.28;29.96;99828.06;4817964;29;46116;-84
2022/04/21 13:52:30;;;;;;;;;9.00;9.00;;;;;21.29;29.70;99825.31;4802230;29;45460;-85
2022/04/21 13:54:56;;;;;;;;;11.00;11.00;;;;;21.51;29.46;99851.38;4819078;29;45533;-85
2022/04/21 13:57:53;;;;;;;;;11.67;10.00;;;;;21.66;29.80;99829.06;4804334;29;45379;-85
2022/04/21 14:00:24;;;;;;;;;11.00;10.00;;;;;21.76;29.50;99830.38;4800549;29;45713;-84
2022/04/21 14:02:55;;;;;;;;;9.67;8.67;;;;;22.65;28.82;99827.06;4800475;29;45509;-84
2022/04/21 14:05:24;;;;;;;;;7.00;7.00;;;;;24.58;27.12;99785.78;4811054;29;45757;-85
2022/04/21 14:07:56;;;;;;;;;9.67;9.67;;;;;27.04;23.89;99835.53;4824732;29;45542;-85
2022/04/21 14:10:37;;;;;;;;;9.33;9.33;;;;;28.51;22.05;99779.50;4819500;29;45569;-85
2022/04/21 14:13:23;;;;;;;;;9.00;9.00;;;;;30.25;22.68;99791.25;4817708;29;44914;-85
2022/04/21 14:15:51;;;;;;;;;8.67;8.33;;;;;31.32;21.06;99785.00;4801904;29;45384;-85